Accueil
METAR-TAF:

METAR-TAF

Aéroports :

Benson, Angleterre

latitude: 51-37N, longitude: 001-05W, altitude: 63 m

Observation

Le bulletin a été fait il y a 10 minutes, à 20:50 UTC
Vent 13 kt de sud/sud-ouest
Température 12°C
Humidité 88%
Pression 1007 hPa
Visibilité 10 km ou plus
Nuages fragmentés à une hauteur de 1300 ft

METAR: EGUB 242050Z 21013KT 9999 BKN013 12/10 Q1007 GRN TEMPO FEW013 BKN020 WHT

Heure: 22:00 (21:00 UTC)

Prévision

Le bulletin a été fait il y a 1 heure et 26 minutes, à 19:34 UTC
Prévision valable du 24 à 21 UTC au 24 à 24 UTC
Vent 12 kt de ouest/sud-ouest
Visibilité 10 km ou plus
Nuages fragmentés à une hauteur de 1500 ft
Probabilité 40% :
Temporairement
du 24 à 21 UTC au 24 à 24 UTC
Quelques nuages à une hauteur de 1500 ft
Nuages fragmentés à une hauteur de 4000 ft

TAF: EGUB 241934Z 2421/2424 25012KT 9999 BKN015 PROB40 TEMPO 2421/2424 FEW015 BKN040

Observations et prévisions météorologiques de plus de 4000 aéroports (messages METAR et TAF).

Les stations disponibles sont représentées par des disques jaunes et rouges sur la carte.

Passer la souris dessus pour voir le nom de la station.

Cliquer dessus pour voir les observations et prévisions météorologiques.

Pour changer de carte: cliquez sur les boutons verts avec une croix noire pour zoomer, sur le bouton vert avec un tiret pour effectuer un zoom arrière, ou sur les flèches vertes pour les cartes adjacentes.


METAR-TAF: